EHEH Airport Information

Runway Information
Runway 03 Length 9843 ft width 148 ft
Elevation 73 ft Threshold 821 ft Heading 35
Runway 21 Length 9843 ft Width 148 ft
Elevation 67 ft Threshold 821 ft Heading 215
Airport Frequencies
Type APP Name APP Frequency 123.175 MHZ
Type ATIS Name ATIS Frequency 126.025 MHZ
Type DIR Name DIRECTOR Frequency 124.525 MHZ
Type GND Name GND Frequency 121.925 MHZ
Type TWR Name TWR Frequency 131 MHZ
Airport Navaids
Type NDB Name Eindhoven Frequency 397 KHZ
Type TACAN Name Eindhoven Frequency 117200 KHZ
Airport Weather Information & NOTAM
ADDS - METARS form results

(1858 UTC 20 April 2021)
Data provider http://aviationweather.gov/metar/data/
 
METAR text: EHEH 201855Z AUTO 35004KT 9999 NCD 12/04 Q1016 BLU NOSIG
Conditions at: EHEH (EINDHOVEN RNLAFB, NL) observed 1855 UTC 20 April 2021
Temperature: 12.0°C (54°F)
Dewpoint: 4.0°C (39°F) [RH = 58%]
Pressure (altimeter): 30.00 inches Hg (1016.0 mb)
Winds: from the N (350 degrees) at 5 MPH (4 knots; 2.1 m/s)
Visibility: 6 or more miles (10+ km)
Ceiling: at least 12,000 feet AGL
Clouds: sky clear below 12,000 feet AGL
Weather: no significant weather observed at this time

METAR text: EHEH 201825Z AUTO 35004KT 9999 NCD 15/04 Q1016 BLU NOSIG
Conditions at: EHEH (EINDHOVEN RNLAFB, NL) observed 1825 UTC 20 April 2021
Temperature: 15.0°C (59°F)
Dewpoint: 4.0°C (39°F) [RH = 48%]
Pressure (altimeter): 30.00 inches Hg (1016.0 mb)
Winds: from the N (350 degrees) at 5 MPH (4 knots; 2.1 m/s)
Visibility: 6 or more miles (10+ km)
Ceiling: at least 12,000 feet AGL
Clouds: sky clear below 12,000 feet AGL
Weather: no significant weather observed at this time

Forecast for: EHEH (EINDHOVEN RNLAFB, NL)
Text: TAF EHEH 201741Z 2018/2124 01003KT CAVOK
Forecast period: 1800 UTC 20 April 2021 to 1100 UTC 21 April 2021
Forecast type: FROM: standard forecast or significant change
Winds: from the N (10 degrees) at 3 MPH (3 knots; 1.5 m/s)
Visibility: 6 or more miles (10+ km)
Ceiling: unknown
Clouds: missing
Weather: NSW  (no significant weather)
Text: PROB30 2100/2106 3000 BR
Forecast period: 0000 to 0600 UTC 21 April 2021
Forecast type: PROBABLE: 30 percent likelihood of the following during this time
Visibility: 1.86 miles (2.99 km)
Ceiling: unknown
Clouds: missing
Weather: BR  (mist)
Text: BECMG 2111/2113 36010KT
Forecast period: 1100 to 1800 UTC 21 April 2021
Forecast type: BECOMING: Conditions expected to become as follows by 1300 UTC 21 April 2021
Winds: from the N (360 degrees) at 12 MPH (10 knots; 5.1 m/s)
Visibility: 6 or more miles (10+ km)
Ceiling: unknown
Clouds: missing
Weather: NSW  (no significant weather)
Text: BECMG 2118/2120 02005KT
Forecast period: 1800 UTC 21 April 2021 to 0000 UTC 22 April 2021
Forecast type: BECOMING: Conditions expected to become as follows by 2000 UTC 21 April 2021
Winds: from the NNE (20 degrees) at 6 MPH (5 knots; 2.6 m/s)
Visibility: 6 or more miles (10+ km)
Ceiling: unknown
Clouds: missing
Weather: NSW  (no significant weather)